createdAt,value
2018-09-24T00:00:16.930Z,90.2
2018-09-24T00:01:16.358Z,90.8
2018-09-24T00:02:16.633Z,89.9
2018-09-24T00:03:16.900Z,91.4
2018-09-24T00:04:17.176Z,91.6
2018-09-24T00:05:16.449Z,89.6
2018-09-24T00:06:16.716Z,89.8
2018-09-24T00:07:16.997Z,90.6
2018-09-24T00:08:16.255Z,91.4
2018-09-24T00:09:16.529Z,91.8
2018-09-24T00:10:16.803Z,91.4
2018-09-24T00:11:16.849Z,91.4
2018-09-24T00:12:17.123Z,91.9
2018-09-24T00:13:16.392Z,92.2
2018-09-24T00:14:16.656Z,92.7
2018-09-24T00:15:16.939Z,92.2
2018-09-24T00:16:17.226Z,93.0
2018-09-24T00:17:16.529Z,91.6
2018-09-24T00:18:16.829Z,91.7
2018-09-24T00:19:17.100Z,91.6
2018-09-24T00:20:16.394Z,91.8
2018-09-24T00:21:16.425Z,92.6
2018-09-24T00:22:16.699Z,92.9
2018-09-24T00:23:16.971Z,93.2
2018-09-24T00:24:17.241Z,93.2
2018-09-24T00:25:16.515Z,92.9
2018-09-24T00:26:16.793Z,93.2
2018-09-24T00:27:17.057Z,93.3
2018-09-24T00:28:16.330Z,92.8
2018-09-24T00:29:16.591Z,92.8
2018-09-24T00:30:16.871Z,92.1
2018-09-24T00:31:16.900Z,92.3
2018-09-24T00:32:17.169Z,92.6
2018-09-24T00:33:16.434Z,92.1
2018-09-24T00:34:16.697Z,92.2
2018-09-24T00:35:16.972Z,92.2
2018-09-24T00:36:17.594Z,92.1
2018-09-24T00:37:16.882Z,92.5
2018-09-24T00:38:17.160Z,92.9
2018-09-24T00:39:16.432Z,92.7
2018-09-24T00:40:16.709Z,91.5
2018-09-24T00:41:16.744Z,92.1
2018-09-24T00:42:17.017Z,92.5
2018-09-24T00:43:16.389Z,92.3
2018-09-24T00:44:16.711Z,93.0
2018-09-24T00:45:16.977Z,93.2
2018-09-24T00:46:17.262Z,92.1
2018-09-24T00:47:16.535Z,94.2
2018-09-24T00:48:16.807Z,93.0
2018-09-24T00:49:17.075Z,91.8
2018-09-24T00:50:16.369Z,92.0
2018-09-24T00:51:16.397Z,93.4
2018-09-24T00:52:16.668Z,92.2
2018-09-24T00:53:16.933Z,92.4
2018-09-24T00:54:17.198Z,92.4
2018-09-24T00:55:16.465Z,92.7
2018-09-24T00:56:16.737Z,92.8
2018-09-24T00:57:17.004Z,92.8
2018-09-24T00:58:16.269Z,92.4
2018-09-24T00:59:16.538Z,91.7
2018-09-24T01:00:16.806Z,92.1
2018-09-24T01:01:16.861Z,92.7
2018-09-24T01:02:17.149Z,93.2
2018-09-24T01:03:16.422Z,91.6
2018-09-24T01:04:16.697Z,92.5
2018-09-24T01:05:16.974Z,92.5
2018-09-24T01:06:17.563Z,92.3
2018-09-24T01:07:16.825Z,92.4
2018-09-24T01:08:17.093Z,91.4
2018-09-24T01:09:16.377Z,91.6
2018-09-24T01:10:16.663Z,91.6
2018-09-24T01:11:16.681Z,92.9
2018-09-24T01:12:16.937Z,93.1
2018-09-24T01:13:17.207Z,92.3
2018-09-24T01:14:16.469Z,92.9
2018-09-24T01:15:16.735Z,92.6
2018-09-24T01:16:17.004Z,92.7
2018-09-24T01:17:16.278Z,92.4
2018-09-24T01:18:16.552Z,92.3
2018-09-24T01:19:16.816Z,92.6
2018-09-24T01:20:17.089Z,92.6
2018-09-24T01:21:17.143Z,93.7
2018-09-24T01:22:16.415Z,92.5
2018-09-24T01:23:16.681Z,92.9
2018-09-24T01:24:16.967Z,92.9
2018-09-24T01:25:17.237Z,92.9
2018-09-24T01:26:16.516Z,92.6
2018-09-24T01:27:16.794Z,92.4
2018-09-24T01:28:17.057Z,92.7
2018-09-24T01:29:16.324Z,92.3
2018-09-24T01:30:16.604Z,91.8
2018-09-24T01:31:16.675Z,92.8
2018-09-24T01:32:16.951Z,92.9
2018-09-24T01:33:17.219Z,91.9
2018-09-24T01:34:16.492Z,91.8
2018-09-24T01:35:16.760Z,92.4
2018-09-24T01:36:17.025Z,93.1
2018-09-24T01:37:16.299Z,92.6
2018-09-24T01:38:16.569Z,93.2
2018-09-24T01:39:16.835Z,92.2
2018-09-24T01:40:17.129Z,91.8
2018-09-24T01:41:16.319Z,92.4
2018-09-24T01:42:16.600Z,91.8
2018-09-24T01:43:16.876Z,91.8
2018-09-24T01:44:17.155Z,91.8
2018-09-24T01:45:16.429Z,91.8
2018-09-24T01:46:16.715Z,92.2
2018-09-24T01:47:16.974Z,92.2
2018-09-24T01:48:17.247Z,91.5
2018-09-24T01:49:16.529Z,92.0
2018-09-24T01:50:16.818Z,92.2
2018-09-24T01:51:16.844Z,93.1
2018-09-24T01:52:17.133Z,92.8
2018-09-24T01:53:16.409Z,93.3
2018-09-24T01:54:16.679Z,92.6
2018-09-24T01:55:16.958Z,91.1
2018-09-24T01:56:17.224Z,91.4
2018-09-24T01:57:16.500Z,91.3
2018-09-24T01:58:16.774Z,91.4
2018-09-24T01:59:17.059Z,91.5
2018-09-24T02:00:16.334Z,91.2
2018-09-24T02:01:16.377Z,91.1
2018-09-24T02:02:16.654Z,91.3
2018-09-24T02:03:16.930Z,92.0
2018-09-24T02:04:17.204Z,92.1
2018-09-24T02:05:16.496Z,91.7
2018-09-24T02:06:16.757Z,91.3
2018-09-24T02:07:17.023Z,91.5
2018-09-24T02:08:16.300Z,90.6
2018-09-24T02:09:16.549Z,91.3
2018-09-24T02:10:16.827Z,90.7
2018-09-24T02:11:16.761Z,90.8
2018-09-24T02:12:17.022Z,90.9
2018-09-24T02:13:16.284Z,90.6
2018-09-24T02:14:16.566Z,90.6
2018-09-24T02:15:16.837Z,90.1
2018-09-24T02:16:17.105Z,90.1
2018-09-24T02:17:16.378Z,90.4
2018-09-24T02:18:16.641Z,89.9
2018-09-24T02:19:16.900Z,90.6
2018-09-24T02:20:17.183Z,90.3
2018-09-24T02:21:17.208Z,89.9
2018-09-24T02:22:16.476Z,90.4
2018-09-24T02:23:16.742Z,91.2
2018-09-24T02:24:17.011Z,92.0
2018-09-24T02:25:16.289Z,91.2
2018-09-24T02:26:16.558Z,91.7
2018-09-24T02:27:16.825Z,91.3
2018-09-24T02:28:17.084Z,90.4
2018-09-24T02:29:16.350Z,91.5
2018-09-24T02:30:16.654Z,90.4
2018-09-24T02:31:16.647Z,91.2
2018-09-24T02:32:16.919Z,90.5
2018-09-24T02:33:17.173Z,91.2
2018-09-24T02:34:16.437Z,90.6
2018-09-24T02:35:16.712Z,90.3
2018-09-24T02:36:16.978Z,91.1
2018-09-24T02:37:17.245Z,90.4
2018-09-24T02:38:16.530Z,90.0
2018-09-24T02:39:16.793Z,90.3
2018-09-24T02:40:17.081Z,90.7
2018-09-24T02:41:17.112Z,90.3
2018-09-24T02:42:16.394Z,90.6
2018-09-24T02:43:16.675Z,91.4
2018-09-24T02:44:16.948Z,90.3
2018-09-24T02:45:17.233Z,90.4
2018-09-24T02:46:16.491Z,91.1
2018-09-24T02:47:16.759Z,90.6
2018-09-24T02:48:17.033Z,91.0
2018-09-24T02:49:16.303Z,90.8
2018-09-24T02:50:16.606Z,90.9
2018-09-24T02:51:16.621Z,91.3
2018-09-24T02:52:16.899Z,90.9
2018-09-24T02:53:17.151Z,90.5
2018-09-24T02:54:16.416Z,91.7
2018-09-24T02:55:16.709Z,91.4
2018-09-24T02:56:16.977Z,91.1
2018-09-24T02:57:17.251Z,92.2
2018-09-24T02:58:16.537Z,90.5
2018-09-24T02:59:16.810Z,91.4
2018-09-24T03:00:17.136Z,91.3
2018-09-24T03:01:17.318Z,90.9
2018-09-24T03:02:16.591Z,91.1
2018-09-24T03:03:16.847Z,91.5
2018-09-24T03:04:17.125Z,91.9
2018-09-24T03:05:16.399Z,91.1
2018-09-24T03:06:16.742Z,91.4
2018-09-24T03:07:17.031Z,92.0
2018-09-24T03:08:16.303Z,92.6
2018-09-24T03:09:16.583Z,92.6
2018-09-24T03:10:16.871Z,91.9
2018-09-24T03:11:16.905Z,91.2
2018-09-24T03:12:17.176Z,91.2
2018-09-24T03:13:16.447Z,91.4
2018-09-24T03:14:16.710Z,91.6
2018-09-24T03:15:16.978Z,92.0
2018-09-24T03:16:17.255Z,91.8
2018-09-24T03:17:16.530Z,92.4
2018-09-24T03:18:16.813Z,92.3
2018-09-24T03:19:17.096Z,91.7
2018-09-24T03:20:16.378Z,91.8
2018-09-24T03:21:16.421Z,91.8
2018-09-24T03:22:16.733Z,91.7
2018-09-24T03:23:17.003Z,91.5
2018-09-24T03:24:16.278Z,92.2
2018-09-24T03:25:16.562Z,92.0
2018-09-24T03:26:16.916Z,91.7
2018-09-24T03:27:17.236Z,92.4
2018-09-24T03:28:16.507Z,92.2
2018-09-24T03:29:16.784Z,92.1
2018-09-24T03:30:17.075Z,92.4
2018-09-24T03:31:17.407Z,92.2
2018-09-24T03:32:16.700Z,92.8
2018-09-24T03:33:16.969Z,93.0
2018-09-24T03:34:17.452Z,94.0
2018-09-24T03:35:16.721Z,93.7
2018-09-24T03:36:17.252Z,93.2
2018-09-24T03:37:16.526Z,93.1
2018-09-24T03:38:16.798Z,93.4
2018-09-24T03:39:17.064Z,92.9
2018-09-24T03:40:16.345Z,92.9
2018-09-24T03:41:16.393Z,93.1
2018-09-24T03:42:16.714Z,92.9
2018-09-24T03:43:16.985Z,92.6
2018-09-24T03:44:17.256Z,93.0
2018-09-24T03:45:16.528Z,92.8
2018-09-24T03:46:16.797Z,93.3
2018-09-24T03:47:17.066Z,93.4
2018-09-24T03:48:16.336Z,93.0
2018-09-24T03:49:16.599Z,93.0
2018-09-24T03:50:16.889Z,93.0
2018-09-24T03:51:16.924Z,92.6
2018-09-24T03:52:17.308Z,93.0
2018-09-24T03:53:16.569Z,93.7
2018-09-24T03:54:16.840Z,92.7
2018-09-24T03:55:17.112Z,92.5
2018-09-24T03:56:16.380Z,92.5
2018-09-24T03:57:16.656Z,93.4
2018-09-24T03:58:16.918Z,93.3
2018-09-24T03:59:17.187Z,93.0
2018-09-24T04:00:16.471Z,93.3
2018-09-24T04:01:16.516Z,93.5
2018-09-24T04:02:16.791Z,93.4
2018-09-24T04:03:17.053Z,93.7
2018-09-24T04:04:16.324Z,93.7
2018-09-24T04:05:16.630Z,93.0
2018-09-24T04:06:16.903Z,93.1
2018-09-24T04:07:17.462Z,93.2
2018-09-24T04:08:16.726Z,93.8
2018-09-24T04:09:17.086Z,93.9
2018-09-24T04:10:16.598Z,94.0
2018-09-24T04:11:16.421Z,93.5
2018-09-24T04:12:16.709Z,93.2
2018-09-24T04:13:17.353Z,92.5
2018-09-24T04:14:16.622Z,93.3
2018-09-24T04:15:16.896Z,92.6
2018-09-24T04:16:17.167Z,92.8
2018-09-24T04:17:16.438Z,92.4
2018-09-24T04:18:16.725Z,92.9
2018-09-24T04:19:16.994Z,92.8
2018-09-24T04:20:16.271Z,92.5
2018-09-24T04:21:16.321Z,92.7
2018-09-24T04:22:16.591Z,92.9
2018-09-24T04:23:16.876Z,92.9
2018-09-24T04:24:17.149Z,93.0
2018-09-24T04:25:16.436Z,93.8
2018-09-24T04:26:16.865Z,93.5
2018-09-24T04:27:17.224Z,94.0
2018-09-24T04:28:16.522Z,93.2
2018-09-24T04:29:16.792Z,93.5
2018-09-24T04:30:17.085Z,93.5
2018-09-24T04:31:17.121Z,93.7
2018-09-24T04:32:16.400Z,93.6
2018-09-24T04:33:16.670Z,93.7
2018-09-24T04:34:16.939Z,93.3
2018-09-24T04:35:17.213Z,93.6
2018-09-24T04:36:16.479Z,93.0
2018-09-24T04:37:16.744Z,93.2
2018-09-24T04:38:17.014Z,93.2
2018-09-24T04:39:16.289Z,93.1
2018-09-24T04:40:16.574Z,93.5
2018-09-24T04:41:16.626Z,93.6
2018-09-24T04:42:16.898Z,93.9
2018-09-24T04:43:17.174Z,93.1
2018-09-24T04:44:16.458Z,93.5
2018-09-24T04:45:16.727Z,93.5
2018-09-24T04:46:16.998Z,92.8
2018-09-24T04:47:16.280Z,93.1
2018-09-24T04:48:16.555Z,92.7
2018-09-24T04:49:17.018Z,93.1
2018-09-24T04:50:16.393Z,93.4
2018-09-24T04:51:16.453Z,93.2
2018-09-24T04:52:16.940Z,93.3
2018-09-24T04:53:17.217Z,93.4
2018-09-24T04:54:16.498Z,93.4
2018-09-24T04:55:16.779Z,93.2
2018-09-24T04:56:17.057Z,93.3
2018-09-24T04:57:16.327Z,93.7
2018-09-24T04:58:16.614Z,93.4
2018-09-24T04:59:16.901Z,93.5
2018-09-24T05:00:17.184Z,94.0
2018-09-24T05:01:17.257Z,94.4
2018-09-24T05:02:16.542Z,94.3
2018-09-24T05:03:16.808Z,93.6
2018-09-24T05:04:17.078Z,93.1
2018-09-24T05:05:16.361Z,93.4
2018-09-24T05:06:16.628Z,94.2
2018-09-24T05:07:16.902Z,93.6
2018-09-24T05:08:17.175Z,93.5
2018-09-24T05:09:16.446Z,93.4
2018-09-24T05:10:16.812Z,93.6
2018-09-24T05:11:16.772Z,93.6
2018-09-24T05:12:17.033Z,93.2
2018-09-24T05:13:16.298Z,93.5
2018-09-24T05:14:16.571Z,93.7
2018-09-24T05:15:16.838Z,94.7
2018-09-24T05:16:17.311Z,94.3
2018-09-24T05:17:16.648Z,93.9
2018-09-24T05:18:16.913Z,94.1
2018-09-24T05:19:17.184Z,94.4
2018-09-24T05:20:16.757Z,93.8
2018-09-24T05:21:16.518Z,94.1
2018-09-24T05:22:16.795Z,94.0
2018-09-24T05:23:17.063Z,93.7
2018-09-24T05:24:16.337Z,94.1
2018-09-24T05:25:16.625Z,93.8
2018-09-24T05:26:16.894Z,93.5
2018-09-24T05:27:17.514Z,93.7
2018-09-24T05:28:16.861Z,94.0
2018-09-24T05:29:17.130Z,94.4
2018-09-24T05:30:16.438Z,94.3
2018-09-24T05:31:16.486Z,94.9
2018-09-24T05:32:16.872Z,94.6
2018-09-24T05:33:17.155Z,94.4
2018-09-24T05:34:16.549Z,93.9
2018-09-24T05:35:16.860Z,94.6
2018-09-24T05:36:17.164Z,94.3
2018-09-24T05:37:16.430Z,94.6
2018-09-24T05:38:16.708Z,94.7
2018-09-24T05:39:16.987Z,94.8
2018-09-24T05:40:16.281Z,94.7
2018-09-24T05:41:16.423Z,93.7
2018-09-24T05:42:16.716Z,94.1
2018-09-24T05:43:16.998Z,94.1
2018-09-24T05:44:16.272Z,93.6
2018-09-24T05:45:16.545Z,93.9
2018-09-24T05:46:16.811Z,94.0
2018-09-24T05:47:17.082Z,94.2
2018-09-24T05:48:16.354Z,93.7
2018-09-24T05:49:16.632Z,93.8
2018-09-24T05:50:16.903Z,94.4
2018-09-24T05:51:16.951Z,94.4
2018-09-24T05:52:17.240Z,94.3
2018-09-24T05:53:16.517Z,95.2
2018-09-24T05:54:16.948Z,95.2
2018-09-24T05:55:16.280Z,94.5
2018-09-24T05:56:16.552Z,94.2
2018-09-24T05:57:16.828Z,94.6
2018-09-24T05:58:17.105Z,93.3
2018-09-24T05:59:16.372Z,93.4
2018-09-24T06:00:16.667Z,93.7
2018-09-24T06:01:16.693Z,93.6
2018-09-24T06:02:16.961Z,93.9
2018-09-24T06:03:17.254Z,93.5
2018-09-24T06:04:16.513Z,92.8
2018-09-24T06:05:16.789Z,92.6
2018-09-24T06:06:17.068Z,92.8
2018-09-24T06:07:16.337Z,93.7
2018-09-24T06:08:16.606Z,93.0
2018-09-24T06:09:16.889Z,93.4
2018-09-24T06:10:17.164Z,93.6
2018-09-24T06:11:17.203Z,92.9
2018-09-24T06:12:16.468Z,92.4
2018-09-24T06:13:16.743Z,92.3
2018-09-24T06:14:17.021Z,92.2
2018-09-24T06:15:16.299Z,92.2
2018-09-24T06:16:16.577Z,92.1
2018-09-24T06:17:16.844Z,91.6
2018-09-24T06:18:17.114Z,92.2
2018-09-24T06:19:16.404Z,92.1
2018-09-24T06:20:16.677Z,92.2
2018-09-24T06:21:16.728Z,91.3
2018-09-24T06:22:16.991Z,91.7
2018-09-24T06:23:16.279Z,91.3
2018-09-24T06:24:16.548Z,91.8
2018-09-24T06:25:16.820Z,91.2
2018-09-24T06:26:17.096Z,91.9
2018-09-24T06:27:16.371Z,91.2
2018-09-24T06:28:16.675Z,91.1
2018-09-24T06:29:16.951Z,91.0
2018-09-24T06:30:17.258Z,90.7
2018-09-24T06:31:16.291Z,90.8
2018-09-24T06:32:16.577Z,90.6
2018-09-24T06:33:16.845Z,90.2
2018-09-24T06:34:17.217Z,90.8
2018-09-24T06:35:16.550Z,90.4
2018-09-24T06:36:16.816Z,90.6
2018-09-24T06:37:17.092Z,91.3
2018-09-24T06:38:16.360Z,90.4
2018-09-24T06:39:16.636Z,90.0
2018-09-24T06:40:17.036Z,90.0
2018-09-24T06:41:17.167Z,90.6
2018-09-24T06:42:16.496Z,89.5
2018-09-24T06:43:16.762Z,89.3
2018-09-24T06:44:17.030Z,89.9
2018-09-24T06:45:16.306Z,89.4
2018-09-24T06:46:16.581Z,89.4
2018-09-24T06:47:16.848Z,89.7
2018-09-24T06:48:17.120Z,91.1
2018-09-24T06:49:16.386Z,89.8
2018-09-24T06:50:16.659Z,90.1
2018-09-24T06:51:16.697Z,89.2
2018-09-24T06:52:16.962Z,89.2
2018-09-24T06:53:17.225Z,89.7
2018-09-24T06:54:16.500Z,89.1
2018-09-24T06:55:16.768Z,89.2
2018-09-24T06:56:17.053Z,89.0
2018-09-24T06:57:16.323Z,88.6
2018-09-24T06:58:16.596Z,88.9
2018-09-24T06:59:16.853Z,88.8
2018-09-24T07:00:17.180Z,89.2
2018-09-24T07:01:17.153Z,88.7
2018-09-24T07:02:16.429Z,88.4
2018-09-24T07:03:16.695Z,89.1
2018-09-24T07:04:16.968Z,88.6
2018-09-24T07:05:17.314Z,89.3
2018-09-24T07:06:16.589Z,89.3
2018-09-24T07:07:16.858Z,88.0
2018-09-24T07:08:17.128Z,87.3
2018-09-24T07:09:16.412Z,87.1
2018-09-24T07:10:16.693Z,87.3
2018-09-24T07:11:16.897Z,87.3
2018-09-24T07:12:17.236Z,87.8
2018-09-24T07:13:16.507Z,87.6
2018-09-24T07:14:16.771Z,86.9
2018-09-24T07:15:17.044Z,87.2
2018-09-24T07:16:16.312Z,86.8
2018-09-24T07:17:16.579Z,87.1
2018-09-24T07:18:16.860Z,86.8
2018-09-24T07:19:17.140Z,87.0
2018-09-24T07:20:16.421Z,87.9
2018-09-24T07:21:16.551Z,87.4
2018-09-24T07:22:16.824Z,86.8
2018-09-24T07:23:17.085Z,86.1
2018-09-24T07:24:16.350Z,85.9
2018-09-24T07:25:16.630Z,86.0
2018-09-24T07:26:16.897Z,85.8
2018-09-24T07:27:17.157Z,86.6
2018-09-24T07:28:16.562Z,86.1
2018-09-24T07:29:16.886Z,86.1
2018-09-24T07:30:17.180Z,86.1
2018-09-24T07:31:17.223Z,86.0
2018-09-24T07:32:16.495Z,86.1
2018-09-24T07:33:16.904Z,85.5
2018-09-24T07:34:17.180Z,85.9
2018-09-24T07:35:16.451Z,85.1
2018-09-24T07:36:16.721Z,85.4
2018-09-24T07:37:16.996Z,84.9
2018-09-24T07:38:16.270Z,85.4
2018-09-24T07:39:16.540Z,84.9
2018-09-24T07:40:16.827Z,85.6
2018-09-24T07:41:16.866Z,85.1
2018-09-24T07:42:17.136Z,84.3
2018-09-24T07:43:16.677Z,84.8
2018-09-24T07:44:17.052Z,84.6
2018-09-24T07:45:16.325Z,84.1
2018-09-24T07:46:16.592Z,84.0
2018-09-24T07:47:16.855Z,82.9
2018-09-24T07:48:17.126Z,82.7
2018-09-24T07:49:16.397Z,83.6
2018-09-24T07:50:16.697Z,83.9
2018-09-24T07:51:16.712Z,85.0
2018-09-24T07:52:16.986Z,84.2
2018-09-24T07:53:17.264Z,84.7
2018-09-24T07:54:16.536Z,83.6
2018-09-24T07:55:16.882Z,83.4
2018-09-24T07:56:17.167Z,83.1
2018-09-24T07:57:16.433Z,83.9
2018-09-24T07:58:16.689Z,83.8
2018-09-24T07:59:16.954Z,82.9
2018-09-24T08:00:17.235Z,82.8
2018-09-24T08:01:16.275Z,82.0
2018-09-24T08:02:16.545Z,82.0
2018-09-24T08:03:16.817Z,81.9
2018-09-24T08:04:17.091Z,81.5
2018-09-24T08:05:16.358Z,81.7
2018-09-24T08:06:16.644Z,81.9
2018-09-24T08:07:16.948Z,81.7
2018-09-24T08:08:17.226Z,80.9
2018-09-24T08:09:16.499Z,80.8
2018-09-24T08:10:16.766Z,80.4
2018-09-24T08:11:16.805Z,80.1
2018-09-24T08:12:17.077Z,80.7
2018-09-24T08:13:16.509Z,80.7
2018-09-24T08:14:16.791Z,80.8
2018-09-24T08:15:17.066Z,79.8
2018-09-24T08:16:16.332Z,80.2
2018-09-24T08:17:16.595Z,79.8
2018-09-24T08:18:16.966Z,80.1
2018-09-24T08:19:16.311Z,80.3
2018-09-24T08:20:16.591Z,80.6
2018-09-24T08:21:16.637Z,79.3
2018-09-24T08:22:16.907Z,80.8
2018-09-24T08:23:17.178Z,79.7
2018-09-24T08:24:16.448Z,79.8
2018-09-24T08:25:16.727Z,79.8
2018-09-24T08:26:17.004Z,80.1
2018-09-24T08:27:16.280Z,80.8
2018-09-24T08:28:16.557Z,79.6
2018-09-24T08:29:16.849Z,79.8
2018-09-24T08:30:17.131Z,79.2
2018-09-24T08:31:17.176Z,78.7
2018-09-24T08:32:16.447Z,78.6
2018-09-24T08:33:16.730Z,80.1
2018-09-24T08:34:17.001Z,79.4
2018-09-24T08:35:16.275Z,78.2
2018-09-24T08:36:16.590Z,77.4
2018-09-24T08:37:16.927Z,77.4
2018-09-24T08:38:17.494Z,77.6
2018-09-24T08:39:16.807Z,76.7
2018-09-24T08:40:17.093Z,77.0
2018-09-24T08:41:17.118Z,77.4
2018-09-24T08:42:16.389Z,76.8
2018-09-24T08:43:16.662Z,76.6
2018-09-24T08:44:17.170Z,76.3
2018-09-24T08:45:16.486Z,76.3
2018-09-24T08:46:16.761Z,76.6
2018-09-24T08:47:17.031Z,77.4
2018-09-24T08:48:16.295Z,77.2
2018-09-24T08:49:16.562Z,77.2
2018-09-24T08:50:16.859Z,77.3
2018-09-24T08:51:16.896Z,77.8
2018-09-24T08:52:17.182Z,77.8
2018-09-24T08:53:16.584Z,78.3
2018-09-24T08:54:16.913Z,76.9
2018-09-24T08:55:17.309Z,76.6
2018-09-24T08:56:16.574Z,76.4
2018-09-24T08:57:17.064Z,76.2
2018-09-24T08:58:16.395Z,76.0
2018-09-24T08:59:16.662Z,76.5
2018-09-24T09:00:16.940Z,76.2
2018-09-24T09:01:17.007Z,75.7
2018-09-24T09:02:16.271Z,75.7
2018-09-24T09:03:16.547Z,75.5
2018-09-24T09:04:16.807Z,76.8
2018-09-24T09:05:17.068Z,75.0
2018-09-24T09:06:16.342Z,74.0
2018-09-24T09:07:16.613Z,73.9
2018-09-24T09:08:16.935Z,59.6
2018-09-24T09:09:16.298Z,59.0
2018-09-24T09:10:16.570Z,58.8
2018-09-24T09:11:16.614Z,57.6
2018-09-24T09:12:16.885Z,57.0
2018-09-24T09:13:17.156Z,56.2
2018-09-24T09:14:16.430Z,57.4
2018-09-24T09:15:16.705Z,60.1
2018-09-24T09:16:17.069Z,60.0
2018-09-24T09:17:16.387Z,59.3
2018-09-24T09:18:16.661Z,60.3
2018-09-24T09:19:16.946Z,61.3
2018-09-24T09:20:17.224Z,59.6
2018-09-24T09:21:17.252Z,56.0
2018-09-24T09:22:16.514Z,55.0
2018-09-24T09:23:16.798Z,55.3
2018-09-24T09:24:17.066Z,55.3
2018-09-24T09:25:16.339Z,55.2
2018-09-24T09:26:16.618Z,55.0
2018-09-24T09:27:16.891Z,54.7
2018-09-24T09:28:17.320Z,54.7
2018-09-24T09:29:16.690Z,56.0
2018-09-24T09:30:16.980Z,56.8
2018-09-24T09:31:17.029Z,56.4
2018-09-24T09:32:16.297Z,56.0
2018-09-24T09:33:16.558Z,56.0
2018-09-24T09:34:16.841Z,56.1
2018-09-24T09:35:17.232Z,56.9
2018-09-24T09:36:16.504Z,55.6
2018-09-24T09:37:16.771Z,57.0
2018-09-24T09:38:17.052Z,57.9
2018-09-24T09:39:16.331Z,56.1
2018-09-24T09:40:16.608Z,56.1
2018-09-24T09:41:16.679Z,58.6
2018-09-24T09:42:16.946Z,58.5
2018-09-24T09:43:17.225Z,58.0
2018-09-24T09:44:16.497Z,58.5
2018-09-24T09:45:16.771Z,57.4
2018-09-24T09:46:17.044Z,57.9
2018-09-24T09:47:16.311Z,58.5
2018-09-24T09:48:16.595Z,58.7
2018-09-24T09:49:16.866Z,58.4
2018-09-24T09:50:17.152Z,58.8
2018-09-24T09:51:17.200Z,57.8
2018-09-24T09:52:16.474Z,57.3
2018-09-24T09:53:16.733Z,57.5
2018-09-24T09:54:17.002Z,57.9
2018-09-24T09:55:16.276Z,56.8
2018-09-24T09:56:16.555Z,57.3
2018-09-24T09:57:16.827Z,57.8
2018-09-24T09:58:17.100Z,58.3
2018-09-24T09:59:16.624Z,59.0
2018-09-24T10:00:17.015Z,59.0
2018-09-24T10:01:17.049Z,58.0
2018-09-24T10:02:16.329Z,57.6
2018-09-24T10:03:16.596Z,56.8
2018-09-24T10:04:16.870Z,56.0
2018-09-24T10:05:17.153Z,54.5
2018-09-24T10:06:16.421Z,53.2
2018-09-24T10:07:16.685Z,52.8
2018-09-24T10:08:16.953Z,52.1
2018-09-24T10:09:17.230Z,51.5
2018-09-24T10:10:16.504Z,52.5
2018-09-24T10:11:16.690Z,52.9
2018-09-24T10:12:17.032Z,52.6
2018-09-24T10:13:16.295Z,53.0
2018-09-24T10:14:16.569Z,52.9
2018-09-24T10:15:16.841Z,51.1
2018-09-24T10:16:17.109Z,50.2
2018-09-24T10:17:16.373Z,49.4
2018-09-24T10:18:16.646Z,48.8
2018-09-24T10:19:16.921Z,49.6
2018-09-24T10:20:17.197Z,50.0
2018-09-24T10:21:17.252Z,50.4
2018-09-24T10:22:16.532Z,51.0
2018-09-24T10:23:16.800Z,50.8
2018-09-24T10:24:17.072Z,49.1
2018-09-24T10:25:16.344Z,48.8
2018-09-24T10:26:16.627Z,48.5
2018-09-24T10:27:16.895Z,47.3
2018-09-24T10:28:17.160Z,47.5
2018-09-24T10:29:16.435Z,46.7
2018-09-24T10:30:16.711Z,45.8
2018-09-24T10:31:16.759Z,46.2
2018-09-24T10:32:17.029Z,47.2
2018-09-24T10:33:16.292Z,48.7
2018-09-24T10:34:16.561Z,49.0
2018-09-24T10:35:16.826Z,48.3
2018-09-24T10:36:17.094Z,48.4
2018-09-24T10:37:16.382Z,49.1
2018-09-24T10:38:16.653Z,50.1
2018-09-24T10:39:16.924Z,49.7
2018-09-24T10:40:17.201Z,49.8
2018-09-24T10:41:16.277Z,51.2
2018-09-24T10:42:16.555Z,51.0
2018-09-24T10:43:16.825Z,50.9
2018-09-24T10:44:17.105Z,51.3
2018-09-24T10:45:16.395Z,52.0
2018-09-24T10:46:16.672Z,52.0
2018-09-24T10:47:16.936Z,52.2
2018-09-24T10:48:17.200Z,51.2
2018-09-24T10:49:16.465Z,51.2
2018-09-24T10:50:16.741Z,51.6
2018-09-24T10:51:16.780Z,52.0
2018-09-24T10:52:17.051Z,52.7
2018-09-24T10:53:16.320Z,51.8
2018-09-24T10:54:16.579Z,52.0
2018-09-24T10:55:16.852Z,51.2
2018-09-24T10:56:17.124Z,51.8
2018-09-24T10:57:16.396Z,51.9
2018-09-24T10:58:16.661Z,52.3
2018-09-24T10:59:16.964Z,53.0
2018-09-24T11:00:17.241Z,54.2
2018-09-24T11:01:16.380Z,53.7
2018-09-24T11:02:16.711Z,54.5
2018-09-24T11:03:16.980Z,53.5
2018-09-24T11:04:17.260Z,53.2
2018-09-24T11:05:16.560Z,54.2
2018-09-24T11:06:16.831Z,54.0
2018-09-24T11:07:17.099Z,54.9
2018-09-24T11:08:16.372Z,54.8
2018-09-24T11:09:16.652Z,54.0
2018-09-24T11:10:17.112Z,52.8
2018-09-24T11:11:16.971Z,51.7
2018-09-24T11:12:17.241Z,50.6
2018-09-24T11:13:16.513Z,51.3
2018-09-24T11:14:16.779Z,49.9
2018-09-24T11:15:17.049Z,50.1
2018-09-24T11:16:16.726Z,51.2
2018-09-24T11:17:17.773Z,49.9
2018-09-24T11:18:17.173Z,48.3
2018-09-24T11:19:16.446Z,48.4
2018-09-24T11:20:16.738Z,46.6
2018-09-24T11:21:16.761Z,48.0
2018-09-24T11:22:17.228Z,48.5
2018-09-24T11:23:16.509Z,48.5
2018-09-24T11:24:16.785Z,49.8
2018-09-24T11:25:17.058Z,50.2
2018-09-24T11:27:16.311Z,51.4
2018-09-24T11:28:16.575Z,52.2
2018-09-24T11:29:16.925Z,52.1
2018-09-24T11:30:17.215Z,51.8
2018-09-24T11:31:16.259Z,51.9
2018-09-24T11:32:16.547Z,50.9
2018-09-24T11:33:16.808Z,51.2
2018-09-24T11:34:17.074Z,49.7
2018-09-24T11:35:16.349Z,50.1
2018-09-24T11:36:16.623Z,51.0
2018-09-24T11:37:16.888Z,50.9
2018-09-24T11:38:17.164Z,51.1
2018-09-24T11:39:16.443Z,51.2
2018-09-24T11:40:16.714Z,51.8
2018-09-24T11:41:16.766Z,51.1
2018-09-24T11:42:17.033Z,51.2
2018-09-24T11:43:16.303Z,50.8
2018-09-24T11:44:16.584Z,51.0
2018-09-24T11:45:16.854Z,50.6
2018-09-24T11:46:17.124Z,50.1
2018-09-24T11:47:16.388Z,49.8
2018-09-24T11:48:16.662Z,50.1
2018-09-24T11:49:16.935Z,50.1
2018-09-24T11:50:17.223Z,49.3
2018-09-24T11:51:16.271Z,49.3
2018-09-24T11:52:16.537Z,51.1
2018-09-24T11:53:16.807Z,50.6
2018-09-24T11:54:17.077Z,49.0
2018-09-24T11:55:16.350Z,48.6
2018-09-24T11:56:16.799Z,48.7
2018-09-24T11:57:17.081Z,49.5
2018-09-24T11:58:16.372Z,47.7
2018-09-24T11:59:16.643Z,46.4
2018-09-24T12:00:16.929Z,46.3
2018-09-24T12:01:16.950Z,47.0
2018-09-24T12:02:17.300Z,47.2
2018-09-24T12:03:16.597Z,47.6
2018-09-24T12:04:16.876Z,47.5
2018-09-24T12:05:17.149Z,47.4
2018-09-24T12:06:16.416Z,48.1
2018-09-24T12:07:16.700Z,49.7
2018-09-24T12:08:16.981Z,48.2
2018-09-24T12:09:17.268Z,47.2
2018-09-24T12:10:16.699Z,46.9
2018-09-24T12:11:16.590Z,46.8
2018-09-24T12:12:16.862Z,47.0
2018-09-24T12:13:17.155Z,47.0
2018-09-24T12:14:16.418Z,47.6
2018-09-24T12:15:16.690Z,46.6
2018-09-24T12:16:16.953Z,46.7
2018-09-24T12:17:17.229Z,47.2
2018-09-24T12:18:16.505Z,47.0
2018-09-24T12:19:16.781Z,47.9
2018-09-24T12:20:17.054Z,48.5
2018-09-24T12:21:17.093Z,47.8
2018-09-24T12:22:16.365Z,47.8
2018-09-24T12:23:16.632Z,47.5
2018-09-24T12:24:16.903Z,47.4
2018-09-24T12:25:17.190Z,47.7
2018-09-24T12:26:16.465Z,48.6
2018-09-24T12:27:16.741Z,47.8
2018-09-24T12:28:17.006Z,48.5
2018-09-24T12:29:16.276Z,49.2
2018-09-24T12:30:16.559Z,47.8
2018-09-24T12:31:16.594Z,48.2
2018-09-24T12:32:16.866Z,48.9
2018-09-24T12:33:17.140Z,48.7
2018-09-24T12:34:16.405Z,48.8
2018-09-24T12:35:16.673Z,48.1
2018-09-24T12:36:16.942Z,48.6
2018-09-24T12:37:17.206Z,49.2
2018-09-24T12:38:16.477Z,48.0
2018-09-24T12:39:16.809Z,48.8
2018-09-24T12:40:17.145Z,48.2
2018-09-24T12:41:17.182Z,48.2
2018-09-24T12:42:16.447Z,48.1
2018-09-24T12:43:16.721Z,48.0
2018-09-24T12:44:16.987Z,47.8
2018-09-24T12:45:17.273Z,48.5
2018-09-24T12:46:16.555Z,47.5
2018-09-24T12:47:16.816Z,47.8
2018-09-24T12:48:17.221Z,47.2
2018-09-24T12:49:16.499Z,46.3
2018-09-24T12:50:16.792Z,45.8
2018-09-24T12:51:16.841Z,47.4
2018-09-24T12:52:17.125Z,46.2
2018-09-24T12:53:16.410Z,46.2
2018-09-24T12:54:16.677Z,45.9
2018-09-24T12:55:16.940Z,45.5
2018-09-24T12:56:17.210Z,45.5
2018-09-24T12:57:16.482Z,45.4
2018-09-24T12:58:16.754Z,45.0
2018-09-24T12:59:17.044Z,45.1
2018-09-24T13:00:16.334Z,44.5
2018-09-24T13:01:16.396Z,45.1
2018-09-24T13:02:16.685Z,44.4
2018-09-24T13:03:16.958Z,44.3
2018-09-24T13:04:17.235Z,43.7
2018-09-24T13:05:16.516Z,43.5
2018-09-24T13:06:16.784Z,44.0
2018-09-24T13:07:17.055Z,44.0
2018-09-24T13:08:16.351Z,44.2
2018-09-24T13:09:16.635Z,44.9
2018-09-24T13:10:16.912Z,45.5
2018-09-24T13:11:16.957Z,45.4
2018-09-24T13:12:17.226Z,46.1
2018-09-24T13:13:16.501Z,45.8
2018-09-24T13:14:16.764Z,45.8
2018-09-24T13:15:17.044Z,46.0
2018-09-24T13:16:16.316Z,46.4
2018-09-24T13:17:16.588Z,45.9
2018-09-24T13:18:16.865Z,45.1
2018-09-24T13:19:17.145Z,44.5